Aberdeen, Kentucky
Current Conditions -  °F | °C
As of 6:53 AM on Friday 31 Oct 2014 (Local Time) from KBWG Reporting Station
Light Rain Light Rain  
Wind Chill:   Ceiling: 4500
Heat Index:   Visibility: 8mi
Dew Point:   Wind: 0mph
Humidity: 83%   Direction: NA
Pressure: 30.02"   Gusts: NA
Location:  37.25°N, 86.68°W
Report Text: KBWG 311153Z AUTO 00000KT 8SM -RA OVC045 09/07 A3002 RMK AO2 RAB50 SLP165 P0000 60000 T00940067 10094 20083 53007
Loading
Personal Weather Stations






























Interactive Weather Map
Tropical Storm Tracking
New forecast layout! Learn more

10-Day Weather Forecast

Advertisements
Track Severe Weather on mobile